sensor_id;sensor_type;location;lat;lon;timestamp;P1;durP1;ratioP1;P2;durP2;ratioP2
72791;SDS011;60907;53.268;8.764;2023-01-06T00:02:18;36.95;;;12.60;;
72791;SDS011;60907;53.268;8.764;2023-01-06T00:04:44;37.75;;;11.82;;
72791;SDS011;60907;53.268;8.764;2023-01-06T00:07:09;37.50;;;12.48;;
72791;SDS011;60907;53.268;8.764;2023-01-06T00:09:34;40.13;;;13.63;;
72791;SDS011;60907;53.268;8.764;2023-01-06T00:12:00;42.30;;;13.23;;
72791;SDS011;60907;53.268;8.764;2023-01-06T00:14:28;35.88;;;12.07;;
72791;SDS011;60907;53.268;8.764;2023-01-06T00:16:53;38.03;;;12.60;;
72791;SDS011;60907;53.268;8.764;2023-01-06T00:19:18;40.90;;;12.15;;
72791;SDS011;60907;53.268;8.764;2023-01-06T00:21:44;48.85;;;12.68;;
72791;SDS011;60907;53.268;8.764;2023-01-06T00:24:09;41.85;;;13.48;;
72791;SDS011;60907;53.268;8.764;2023-01-06T00:26:36;40.67;;;13.30;;
72791;SDS011;60907;53.268;8.764;2023-01-06T00:29:01;46.40;;;12.93;;
72791;SDS011;60907;53.268;8.764;2023-01-06T00:31:27;43.03;;;14.02;;
72791;SDS011;60907;53.268;8.764;2023-01-06T00:33:56;44.20;;;14.05;;
72791;SDS011;60907;53.268;8.764;2023-01-06T00:36:22;47.03;;;14.48;;
72791;SDS011;60907;53.268;8.764;2023-01-06T00:38:48;43.88;;;14.38;;
72791;SDS011;60907;53.268;8.764;2023-01-06T00:41:14;51.15;;;15.07;;
72791;SDS011;60907;53.268;8.764;2023-01-06T00:43:58;45.60;;;13.82;;
72791;SDS011;60907;53.268;8.764;2023-01-06T00:46:25;48.92;;;15.30;;
72791;SDS011;60907;53.268;8.764;2023-01-06T00:48:53;49.47;;;14.65;;
72791;SDS011;60907;53.268;8.764;2023-01-06T00:51:19;46.25;;;14.43;;
72791;SDS011;60907;53.268;8.764;2023-01-06T00:53:45;48.28;;;14.38;;
72791;SDS011;60907;53.268;8.764;2023-01-06T00:56:10;53.58;;;15.35;;
72791;SDS011;60907;53.268;8.764;2023-01-06T00:58:35;57.53;;;15.27;;
72791;SDS011;60907;53.268;8.764;2023-01-06T01:01:05;46.90;;;15.55;;
72791;SDS011;60907;53.268;8.764;2023-01-06T01:03:31;59.00;;;16.58;;
72791;SDS011;60907;53.268;8.764;2023-01-06T01:05:58;57.78;;;15.77;;
72791;SDS011;60907;53.268;8.764;2023-01-06T01:08:27;51.88;;;17.30;;
72791;SDS011;60907;53.268;8.764;2023-01-06T01:10:53;51.70;;;15.02;;
72791;SDS011;60907;53.268;8.764;2023-01-06T01:13:19;56.20;;;16.15;;
72791;SDS011;60907;53.268;8.764;2023-01-06T01:15:44;57.97;;;15.82;;
72791;SDS011;60907;53.268;8.764;2023-01-06T01:18:10;45.70;;;15.27;;
72791;SDS011;60907;53.268;8.764;2023-01-06T01:20:35;53.30;;;16.92;;
72791;SDS011;60907;53.268;8.764;2023-01-06T01:23:01;56.38;;;16.58;;
72791;SDS011;60907;53.268;8.764;2023-01-06T01:25:26;59.97;;;16.27;;
72791;SDS011;60907;53.268;8.764;2023-01-06T01:27:52;66.63;;;17.08;;
72791;SDS011;60907;53.268;8.764;2023-01-06T01:30:17;53.60;;;17.95;;
72791;SDS011;60907;53.268;8.764;2023-01-06T01:32:45;57.40;;;16.77;;
72791;SDS011;60907;53.268;8.764;2023-01-06T01:35:11;52.58;;;15.02;;
72791;SDS011;60907;53.268;8.764;2023-01-06T01:37:36;60.63;;;17.20;;
72791;SDS011;60907;53.268;8.764;2023-01-06T01:40:02;57.67;;;17.70;;
72791;SDS011;60907;53.268;8.764;2023-01-06T01:42:28;54.58;;;16.42;;
72791;SDS011;60907;53.268;8.764;2023-01-06T01:44:55;54.92;;;16.05;;
72791;SDS011;60907;53.268;8.764;2023-01-06T01:50:07;62.90;;;17.00;;
72791;SDS011;60907;53.268;8.764;2023-01-06T01:52:46;49.30;;;16.10;;
72791;SDS011;60907;53.268;8.764;2023-01-06T01:55:14;52.58;;;17.05;;
72791;SDS011;60907;53.268;8.764;2023-01-06T01:57:49;60.17;;;17.38;;
72791;SDS011;60907;53.268;8.764;2023-01-06T02:00:21;55.17;;;16.67;;
72791;SDS011;60907;53.268;8.764;2023-01-06T02:02:47;55.63;;;17.77;;
72791;SDS011;60907;53.268;8.764;2023-01-06T02:05:13;60.65;;;18.02;;
72791;SDS011;60907;53.268;8.764;2023-01-06T02:07:42;50.28;;;17.65;;
72791;SDS011;60907;53.268;8.764;2023-01-06T02:10:19;61.72;;;17.42;;
72791;SDS011;60907;53.268;8.764;2023-01-06T02:12:46;58.63;;;16.63;;
72791;SDS011;60907;53.268;8.764;2023-01-06T02:15:17;56.10;;;16.40;;
72791;SDS011;60907;53.268;8.764;2023-01-06T02:17:55;55.35;;;16.80;;
72791;SDS011;60907;53.268;8.764;2023-01-06T02:20:40;49.55;;;17.33;;
72791;SDS011;60907;53.268;8.764;2023-01-06T02:43:27;54.17;;;18.08;;
72791;SDS011;60907;53.268;8.764;2023-01-06T02:48:49;48.03;;;15.55;;
72791;SDS011;60907;53.268;8.764;2023-01-06T02:51:21;50.40;;;17.40;;
72791;SDS011;60907;53.268;8.764;2023-01-06T02:56:26;51.67;;;16.52;;
72791;SDS011;60907;53.268;8.764;2023-01-06T02:58:59;51.60;;;16.13;;
72791;SDS011;60907;53.268;8.764;2023-01-06T03:01:30;45.88;;;15.43;;
72791;SDS011;60907;53.268;8.764;2023-01-06T03:04:01;44.83;;;15.07;;
72791;SDS011;60907;53.268;8.764;2023-01-06T03:06:30;49.33;;;16.60;;
72791;SDS011;60907;53.268;8.764;2023-01-06T03:08:56;44.97;;;15.95;;
72791;SDS011;60907;53.268;8.764;2023-01-06T03:11:23;43.17;;;15.98;;
72791;SDS011;60907;53.268;8.764;2023-01-06T03:13:55;47.20;;;15.88;;
72791;SDS011;60907;53.268;8.764;2023-01-06T03:16:23;44.72;;;16.13;;
72791;SDS011;60907;53.268;8.764;2023-01-06T03:18:50;43.20;;;16.65;;
72791;SDS011;60907;53.268;8.764;2023-01-06T03:21:18;37.88;;;13.32;;
72791;SDS011;60907;53.268;8.764;2023-01-06T03:23:46;39.10;;;13.38;;
72791;SDS011;60907;53.268;8.764;2023-01-06T03:26:12;40.80;;;12.98;;
72791;SDS011;60907;53.268;8.764;2023-01-06T03:28:37;41.97;;;15.07;;
72791;SDS011;60907;53.268;8.764;2023-01-06T03:36:31;35.15;;;12.88;;
72791;SDS011;60907;53.268;8.764;2023-01-06T03:39:24;29.42;;;11.35;;
72791;SDS011;60907;53.268;8.764;2023-01-06T03:50:20;29.70;;;11.25;;
72791;SDS011;60907;53.268;8.764;2023-01-06T03:52:54;31.85;;;12.45;;
72791;SDS011;60907;53.268;8.764;2023-01-06T03:55:39;26.13;;;11.00;;
72791;SDS011;60907;53.268;8.764;2023-01-06T03:58:08;24.33;;;11.02;;
72791;SDS011;60907;53.268;8.764;2023-01-06T04:00:35;28.45;;;10.80;;
72791;SDS011;60907;53.268;8.764;2023-01-06T04:03:01;28.33;;;11.32;;
72791;SDS011;60907;53.268;8.764;2023-01-06T04:05:31;25.08;;;11.07;;
72791;SDS011;60907;53.268;8.764;2023-01-06T04:07:56;26.95;;;10.57;;
72791;SDS011;60907;53.268;8.764;2023-01-06T04:10:22;22.33;;;10.40;;
72791;SDS011;60907;53.268;8.764;2023-01-06T04:12:48;22.73;;;10.30;;
72791;SDS011;60907;53.268;8.764;2023-01-06T04:15:15;24.40;;;9.68;;
72791;SDS011;60907;53.268;8.764;2023-01-06T04:17:41;22.02;;;9.57;;
72791;SDS011;60907;53.268;8.764;2023-01-06T04:20:12;23.83;;;10.80;;
72791;SDS011;60907;53.268;8.764;2023-01-06T04:22:42;24.95;;;10.63;;
72791;SDS011;60907;53.268;8.764;2023-01-06T04:25:07;25.67;;;9.52;;
72791;SDS011;60907;53.268;8.764;2023-01-06T04:27:33;24.75;;;9.82;;
72791;SDS011;60907;53.268;8.764;2023-01-06T04:29:59;21.30;;;9.68;;
72791;SDS011;60907;53.268;8.764;2023-01-06T04:32:24;19.27;;;9.13;;
72791;SDS011;60907;53.268;8.764;2023-01-06T04:34:50;20.52;;;9.00;;
72791;SDS011;60907;53.268;8.764;2023-01-06T04:37:15;23.48;;;10.23;;
72791;SDS011;60907;53.268;8.764;2023-01-06T04:39:41;22.30;;;10.55;;
72791;SDS011;60907;53.268;8.764;2023-01-06T04:42:07;24.45;;;9.27;;
72791;SDS011;60907;53.268;8.764;2023-01-06T04:44:32;20.25;;;10.27;;
72791;SDS011;60907;53.268;8.764;2023-01-06T04:46:57;20.38;;;8.60;;
72791;SDS011;60907;53.268;8.764;2023-01-06T04:49:23;21.52;;;9.05;;
72791;SDS011;60907;53.268;8.764;2023-01-06T04:51:48;19.00;;;8.63;;
72791;SDS011;60907;53.268;8.764;2023-01-06T04:54:14;18.38;;;8.73;;
72791;SDS011;60907;53.268;8.764;2023-01-06T04:56:39;21.83;;;9.35;;
72791;SDS011;60907;53.268;8.764;2023-01-06T04:59:05;19.13;;;8.85;;
72791;SDS011;60907;53.268;8.764;2023-01-06T05:01:30;20.85;;;8.35;;
72791;SDS011;60907;53.268;8.764;2023-01-06T05:03:55;24.58;;;9.68;;
72791;SDS011;60907;53.268;8.764;2023-01-06T05:06:21;15.32;;;7.60;;
72791;SDS011;60907;53.268;8.764;2023-01-06T05:08:47;17.63;;;9.60;;
72791;SDS011;60907;53.268;8.764;2023-01-06T05:11:14;18.23;;;8.45;;
72791;SDS011;60907;53.268;8.764;2023-01-06T05:13:41;18.20;;;8.43;;
72791;SDS011;60907;53.268;8.764;2023-01-06T05:16:11;21.52;;;8.82;;
72791;SDS011;60907;53.268;8.764;2023-01-06T05:18:41;20.02;;;8.52;;
72791;SDS011;60907;53.268;8.764;2023-01-06T05:21:06;18.77;;;8.85;;
72791;SDS011;60907;53.268;8.764;2023-01-06T05:23:32;22.40;;;9.57;;
72791;SDS011;60907;53.268;8.764;2023-01-06T05:25:57;17.33;;;8.45;;
72791;SDS011;60907;53.268;8.764;2023-01-06T05:28:22;22.00;;;9.75;;
72791;SDS011;60907;53.268;8.764;2023-01-06T05:30:48;19.33;;;9.25;;
72791;SDS011;60907;53.268;8.764;2023-01-06T05:33:14;23.45;;;10.45;;
72791;SDS011;60907;53.268;8.764;2023-01-06T05:35:39;19.77;;;9.45;;
72791;SDS011;60907;53.268;8.764;2023-01-06T05:38:05;22.88;;;9.68;;
72791;SDS011;60907;53.268;8.764;2023-01-06T05:40:30;21.42;;;9.82;;
72791;SDS011;60907;53.268;8.764;2023-01-06T05:42:56;23.10;;;9.63;;
72791;SDS011;60907;53.268;8.764;2023-01-06T05:45:22;19.27;;;8.88;;
72791;SDS011;60907;53.268;8.764;2023-01-06T05:47:48;18.38;;;9.40;;
72791;SDS011;60907;53.268;8.764;2023-01-06T05:50:14;24.58;;;9.93;;
72791;SDS011;60907;53.268;8.764;2023-01-06T05:52:39;19.95;;;10.02;;
72791;SDS011;60907;53.268;8.764;2023-01-06T05:55:05;19.02;;;9.77;;
72791;SDS011;60907;53.268;8.764;2023-01-06T05:57:34;19.98;;;9.45;;
72791;SDS011;60907;53.268;8.764;2023-01-06T06:00:01;18.75;;;9.10;;
72791;SDS011;60907;53.268;8.764;2023-01-06T06:02:28;18.33;;;9.40;;
72791;SDS011;60907;53.268;8.764;2023-01-06T06:04:53;18.65;;;8.90;;
72791;SDS011;60907;53.268;8.764;2023-01-06T06:07:19;19.48;;;8.77;;
72791;SDS011;60907;53.268;8.764;2023-01-06T06:09:44;16.42;;;8.80;;
72791;SDS011;60907;53.268;8.764;2023-01-06T06:12:10;20.20;;;8.75;;
72791;SDS011;60907;53.268;8.764;2023-01-06T06:14:36;17.80;;;9.00;;
72791;SDS011;60907;53.268;8.764;2023-01-06T06:17:02;15.93;;;7.72;;
72791;SDS011;60907;53.268;8.764;2023-01-06T06:19:27;18.38;;;8.55;;
72791;SDS011;60907;53.268;8.764;2023-01-06T06:21:53;19.35;;;8.07;;
72791;SDS011;60907;53.268;8.764;2023-01-06T06:24:18;14.07;;;7.78;;
72791;SDS011;60907;53.268;8.764;2023-01-06T06:26:44;16.23;;;7.50;;
72791;SDS011;60907;53.268;8.764;2023-01-06T06:29:09;14.75;;;7.13;;
72791;SDS011;60907;53.268;8.764;2023-01-06T06:31:35;15.82;;;6.85;;
72791;SDS011;60907;53.268;8.764;2023-01-06T06:34:01;15.10;;;6.40;;
72791;SDS011;60907;53.268;8.764;2023-01-06T06:36:27;13.77;;;7.28;;
72791;SDS011;60907;53.268;8.764;2023-01-06T06:38:53;14.77;;;6.80;;
72791;SDS011;60907;53.268;8.764;2023-01-06T06:41:19;16.95;;;6.57;;
72791;SDS011;60907;53.268;8.764;2023-01-06T06:43:47;11.77;;;5.85;;
72791;SDS011;60907;53.268;8.764;2023-01-06T06:46:13;13.50;;;6.03;;
72791;SDS011;60907;53.268;8.764;2023-01-06T06:48:38;11.50;;;5.97;;
72791;SDS011;60907;53.268;8.764;2023-01-06T06:51:05;10.15;;;5.32;;
72791;SDS011;60907;53.268;8.764;2023-01-06T06:53:32;11.70;;;6.15;;
72791;SDS011;60907;53.268;8.764;2023-01-06T06:55:58;10.25;;;5.43;;
72791;SDS011;60907;53.268;8.764;2023-01-06T06:58:24;12.57;;;5.50;;
72791;SDS011;60907;53.268;8.764;2023-01-06T07:00:50;12.88;;;6.25;;
72791;SDS011;60907;53.268;8.764;2023-01-06T07:03:15;9.52;;;5.00;;
72791;SDS011;60907;53.268;8.764;2023-01-06T07:05:44;11.43;;;6.18;;
72791;SDS011;60907;53.268;8.764;2023-01-06T07:08:10;11.63;;;6.10;;
72791;SDS011;60907;53.268;8.764;2023-01-06T07:10:38;14.05;;;6.88;;
72791;SDS011;60907;53.268;8.764;2023-01-06T07:13:04;10.85;;;4.93;;
72791;SDS011;60907;53.268;8.764;2023-01-06T07:15:30;11.40;;;5.55;;
72791;SDS011;60907;53.268;8.764;2023-01-06T07:17:58;13.07;;;4.93;;
72791;SDS011;60907;53.268;8.764;2023-01-06T07:20:27;10.05;;;5.30;;
72791;SDS011;60907;53.268;8.764;2023-01-06T07:22:54;9.07;;;4.82;;
72791;SDS011;60907;53.268;8.764;2023-01-06T07:25:19;10.13;;;4.93;;
72791;SDS011;60907;53.268;8.764;2023-01-06T07:27:45;8.55;;;4.50;;
72791;SDS011;60907;53.268;8.764;2023-01-06T07:30:10;7.30;;;3.83;;
72791;SDS011;60907;53.268;8.764;2023-01-06T07:32:36;9.70;;;3.33;;
72791;SDS011;60907;53.268;8.764;2023-01-06T07:35:01;6.25;;;3.78;;
72791;SDS011;60907;53.268;8.764;2023-01-06T07:37:27;4.80;;;3.13;;
72791;SDS011;60907;53.268;8.764;2023-01-06T07:39:52;5.93;;;3.10;;
72791;SDS011;60907;53.268;8.764;2023-01-06T07:42:18;6.50;;;3.08;;
72791;SDS011;60907;53.268;8.764;2023-01-06T07:44:43;7.85;;;3.15;;
72791;SDS011;60907;53.268;8.764;2023-01-06T07:47:09;7.45;;;3.17;;
72791;SDS011;60907;53.268;8.764;2023-01-06T07:49:34;7.50;;;2.90;;
72791;SDS011;60907;53.268;8.764;2023-01-06T07:52:00;5.70;;;2.63;;
72791;SDS011;60907;53.268;8.764;2023-01-06T07:54:25;5.63;;;2.75;;
72791;SDS011;60907;53.268;8.764;2023-01-06T07:56:51;6.03;;;3.30;;
72791;SDS011;60907;53.268;8.764;2023-01-06T07:59:16;6.10;;;3.00;;
72791;SDS011;60907;53.268;8.764;2023-01-06T08:01:42;5.72;;;2.42;;
72791;SDS011;60907;53.268;8.764;2023-01-06T08:04:07;6.68;;;2.55;;
72791;SDS011;60907;53.268;8.764;2023-01-06T08:06:32;6.65;;;3.00;;
72791;SDS011;60907;53.268;8.764;2023-01-06T08:08:58;5.57;;;2.17;;
72791;SDS011;60907;53.268;8.764;2023-01-06T08:11:23;8.98;;;2.53;;
72791;SDS011;60907;53.268;8.764;2023-01-06T08:13:49;4.80;;;1.85;;
72791;SDS011;60907;53.268;8.764;2023-01-06T08:16:14;8.40;;;2.42;;
72791;SDS011;60907;53.268;8.764;2023-01-06T08:18:40;4.90;;;2.17;;
72791;SDS011;60907;53.268;8.764;2023-01-06T08:21:07;4.78;;;2.13;;
72791;SDS011;60907;53.268;8.764;2023-01-06T08:23:33;3.95;;;2.00;;
72791;SDS011;60907;53.268;8.764;2023-01-06T08:26:03;6.85;;;2.53;;
72791;SDS011;60907;53.268;8.764;2023-01-06T08:28:31;4.28;;;2.00;;
72791;SDS011;60907;53.268;8.764;2023-01-06T08:30:56;4.13;;;1.80;;
72791;SDS011;60907;53.268;8.764;2023-01-06T08:33:22;4.35;;;2.05;;
72791;SDS011;60907;53.268;8.764;2023-01-06T08:38:15;4.88;;;2.10;;
72791;SDS011;60907;53.268;8.764;2023-01-06T08:40:41;4.97;;;1.90;;
72791;SDS011;60907;53.268;8.764;2023-01-06T08:43:06;3.83;;;1.80;;
72791;SDS011;60907;53.268;8.764;2023-01-06T08:45:31;6.38;;;2.40;;
72791;SDS011;60907;53.268;8.764;2023-01-06T08:47:57;7.38;;;2.47;;
72791;SDS011;60907;53.268;8.764;2023-01-06T08:50:22;5.65;;;2.08;;
72791;SDS011;60907;53.268;8.764;2023-01-06T08:52:48;3.70;;;2.45;;
72791;SDS011;60907;53.268;8.764;2023-01-06T08:55:13;4.55;;;3.08;;
72791;SDS011;60907;53.268;8.764;2023-01-06T08:57:39;6.10;;;2.33;;
72791;SDS011;60907;53.268;8.764;2023-01-06T09:00:05;3.03;;;2.20;;
72791;SDS011;60907;53.268;8.764;2023-01-06T09:02:31;4.40;;;2.15;;
72791;SDS011;60907;53.268;8.764;2023-01-06T09:04:56;5.00;;;3.10;;
72791;SDS011;60907;53.268;8.764;2023-01-06T09:07:22;4.75;;;2.75;;
72791;SDS011;60907;53.268;8.764;2023-01-06T09:09:47;4.35;;;2.60;;
72791;SDS011;60907;53.268;8.764;2023-01-06T09:12:13;6.20;;;2.75;;
72791;SDS011;60907;53.268;8.764;2023-01-06T09:14:38;4.05;;;2.78;;
72791;SDS011;60907;53.268;8.764;2023-01-06T09:17:04;4.88;;;2.80;;
72791;SDS011;60907;53.268;8.764;2023-01-06T09:19:29;5.35;;;2.92;;
72791;SDS011;60907;53.268;8.764;2023-01-06T09:21:55;5.25;;;2.88;;
72791;SDS011;60907;53.268;8.764;2023-01-06T09:24:20;6.63;;;3.17;;
72791;SDS011;60907;53.268;8.764;2023-01-06T09:26:46;5.60;;;2.22;;
72791;SDS011;60907;53.268;8.764;2023-01-06T09:29:11;3.47;;;2.42;;
72791;SDS011;60907;53.268;8.764;2023-01-06T09:31:37;4.22;;;2.17;;
72791;SDS011;60907;53.268;8.764;2023-01-06T09:34:02;3.83;;;2.38;;
72791;SDS011;60907;53.268;8.764;2023-01-06T09:36:28;4.60;;;2.58;;
72791;SDS011;60907;53.268;8.764;2023-01-06T09:38:53;7.13;;;3.13;;
72791;SDS011;60907;53.268;8.764;2023-01-06T09:46:55;5.88;;;2.92;;
72791;SDS011;60907;53.268;8.764;2023-01-06T09:51:50;6.78;;;2.58;;
72791;SDS011;60907;53.268;8.764;2023-01-06T09:54:20;5.10;;;2.10;;
72791;SDS011;60907;53.268;8.764;2023-01-06T09:56:52;4.65;;;2.00;;
72791;SDS011;60907;53.268;8.764;2023-01-06T09:59:29;3.78;;;2.35;;
72791;SDS011;60907;53.268;8.764;2023-01-06T10:02:02;5.43;;;2.35;;
72791;SDS011;60907;53.268;8.764;2023-01-06T10:04:35;3.78;;;1.60;;
72791;SDS011;60907;53.268;8.764;2023-01-06T10:09:35;4.25;;;2.38;;
72791;SDS011;60907;53.268;8.764;2023-01-06T10:31:03;1.27;;;1.08;;
72791;SDS011;60907;53.268;8.764;2023-01-06T10:33:32;1.30;;;0.90;;
72791;SDS011;60907;53.268;8.764;2023-01-06T10:36:01;2.90;;;0.90;;
72791;SDS011;60907;53.268;8.764;2023-01-06T10:38:34;1.02;;;0.50;;
72791;SDS011;60907;53.268;8.764;2023-01-06T10:43:44;0.57;;;0.40;;
72791;SDS011;60907;53.268;8.764;2023-01-06T10:46:09;0.88;;;0.52;;
72791;SDS011;60907;53.268;8.764;2023-01-06T10:48:35;2.70;;;0.68;;
72791;SDS011;60907;53.268;8.764;2023-01-06T10:54:12;4.97;;;0.47;;
72791;SDS011;60907;53.268;8.764;2023-01-06T10:56:42;1.77;;;0.32;;
72791;SDS011;60907;53.268;8.764;2023-01-06T10:59:11;1.33;;;0.57;;
72791;SDS011;60907;53.268;8.764;2023-01-06T11:01:46;2.05;;;0.32;;
72791;SDS011;60907;53.268;8.764;2023-01-06T11:04:16;2.55;;;0.55;;
72791;SDS011;60907;53.268;8.764;2023-01-06T11:06:44;1.00;;;0.40;;
72791;SDS011;60907;53.268;8.764;2023-01-06T11:12:02;3.53;;;0.32;;
72791;SDS011;60907;53.268;8.764;2023-01-06T11:14:34;1.17;;;0.20;;
72791;SDS011;60907;53.268;8.764;2023-01-06T11:17:05;1.33;;;0.43;;
72791;SDS011;60907;53.268;8.764;2023-01-06T11:22:09;5.45;;;0.57;;
72791;SDS011;60907;53.268;8.764;2023-01-06T11:24:59;2.22;;;0.40;;
72791;SDS011;60907;53.268;8.764;2023-01-06T11:27:25;1.75;;;0.20;;
72791;SDS011;60907;53.268;8.764;2023-01-06T11:29:51;1.75;;;0.30;;
72791;SDS011;60907;53.268;8.764;2023-01-06T11:34:44;1.48;;;0.30;;
72791;SDS011;60907;53.268;8.764;2023-01-06T11:37:28;2.97;;;0.30;;
72791;SDS011;60907;53.268;8.764;2023-01-06T11:40:12;0.70;;;0.20;;
72791;SDS011;60907;53.268;8.764;2023-01-06T11:42:42;3.95;;;0.30;;
72791;SDS011;60907;53.268;8.764;2023-01-06T11:45:26;2.45;;;0.38;;
72791;SDS011;60907;53.268;8.764;2023-01-06T11:47:53;2.85;;;0.43;;
72791;SDS011;60907;53.268;8.764;2023-01-06T11:50:18;2.45;;;0.30;;
72791;SDS011;60907;53.268;8.764;2023-01-06T11:52:44;1.95;;;0.22;;
72791;SDS011;60907;53.268;8.764;2023-01-06T11:55:22;3.22;;;0.43;;
72791;SDS011;60907;53.268;8.764;2023-01-06T12:08:20;3.60;;;0.32;;
72791;SDS011;60907;53.268;8.764;2023-01-06T12:10:50;3.97;;;0.43;;
72791;SDS011;60907;53.268;8.764;2023-01-06T12:13:18;3.45;;;0.30;;
72791;SDS011;60907;53.268;8.764;2023-01-06T12:15:44;2.55;;;0.40;;
72791;SDS011;60907;53.268;8.764;2023-01-06T12:18:12;3.08;;;0.60;;
72791;SDS011;60907;53.268;8.764;2023-01-06T12:20:42;4.15;;;0.32;;
72791;SDS011;60907;53.268;8.764;2023-01-06T12:23:13;4.60;;;0.43;;
72791;SDS011;60907;53.268;8.764;2023-01-06T12:25:44;5.43;;;0.38;;
72791;SDS011;60907;53.268;8.764;2023-01-06T12:38:56;2.97;;;0.52;;
72791;SDS011;60907;53.268;8.764;2023-01-06T12:49:47;3.20;;;0.47;;
72791;SDS011;60907;53.268;8.764;2023-01-06T12:52:18;1.58;;;0.28;;
72791;SDS011;60907;53.268;8.764;2023-01-06T12:54:51;2.83;;;0.30;;
72791;SDS011;60907;53.268;8.764;2023-01-06T13:03:20;3.15;;;0.50;;
72791;SDS011;60907;53.268;8.764;2023-01-06T13:16:03;5.18;;;0.82;;
72791;SDS011;60907;53.268;8.764;2023-01-06T13:18:38;2.10;;;0.30;;
72791;SDS011;60907;53.268;8.764;2023-01-06T13:26:45;6.18;;;0.68;;
72791;SDS011;60907;53.268;8.764;2023-01-06T13:29:47;3.17;;;0.30;;
72791;SDS011;60907;53.268;8.764;2023-01-06T13:40:08;4.35;;;0.32;;
72791;SDS011;60907;53.268;8.764;2023-01-06T13:42:45;5.65;;;0.60;;
72791;SDS011;60907;53.268;8.764;2023-01-06T13:45:26;0.80;;;0.13;;
72791;SDS011;60907;53.268;8.764;2023-01-06T13:47:53;4.82;;;0.73;;
72791;SDS011;60907;53.268;8.764;2023-01-06T13:50:19;6.45;;;0.40;;
72791;SDS011;60907;53.268;8.764;2023-01-06T13:52:46;4.68;;;0.63;;
72791;SDS011;60907;53.268;8.764;2023-01-06T13:57:44;2.45;;;0.35;;
72791;SDS011;60907;53.268;8.764;2023-01-06T14:07:49;1.58;;;0.32;;
72791;SDS011;60907;53.268;8.764;2023-01-06T14:12:53;2.45;;;0.43;;
72791;SDS011;60907;53.268;8.764;2023-01-06T14:15:25;4.55;;;0.30;;
72791;SDS011;60907;53.268;8.764;2023-01-06T14:17:55;2.63;;;0.60;;
72791;SDS011;60907;53.268;8.764;2023-01-06T14:20:29;6.38;;;1.50;;
72791;SDS011;60907;53.268;8.764;2023-01-06T14:23:06;3.78;;;0.43;;
72791;SDS011;60907;53.268;8.764;2023-01-06T14:25:48;5.15;;;0.63;;
72791;SDS011;60907;53.268;8.764;2023-01-06T14:30:48;4.90;;;0.52;;
72791;SDS011;60907;53.268;8.764;2023-01-06T14:33:22;1.55;;;0.50;;
72791;SDS011;60907;53.268;8.764;2023-01-06T14:35:53;3.88;;;1.15;;
72791;SDS011;60907;53.268;8.764;2023-01-06T14:38:27;4.70;;;0.43;;
72791;SDS011;60907;53.268;8.764;2023-01-06T14:40:59;7.50;;;0.65;;
72791;SDS011;60907;53.268;8.764;2023-01-06T14:46:08;4.55;;;0.70;;
72791;SDS011;60907;53.268;8.764;2023-01-06T14:48:42;4.88;;;0.68;;
72791;SDS011;60907;53.268;8.764;2023-01-06T14:51:17;4.45;;;0.70;;
72791;SDS011;60907;53.268;8.764;2023-01-06T14:53:48;3.17;;;0.50;;
72791;SDS011;60907;53.268;8.764;2023-01-06T14:56:28;5.78;;;0.50;;
72791;SDS011;60907;53.268;8.764;2023-01-06T14:59:04;5.47;;;0.55;;
72791;SDS011;60907;53.268;8.764;2023-01-06T15:01:33;3.63;;;0.73;;
72791;SDS011;60907;53.268;8.764;2023-01-06T15:04:00;5.68;;;0.80;;
72791;SDS011;60907;53.268;8.764;2023-01-06T15:08:53;5.78;;;0.60;;
72791;SDS011;60907;53.268;8.764;2023-01-06T15:11:23;3.58;;;0.38;;
72791;SDS011;60907;53.268;8.764;2023-01-06T15:13:48;5.53;;;0.73;;
72791;SDS011;60907;53.268;8.764;2023-01-06T15:16:17;5.00;;;0.77;;
72791;SDS011;60907;53.268;8.764;2023-01-06T15:18:43;2.72;;;0.70;;
72791;SDS011;60907;53.268;8.764;2023-01-06T15:21:11;5.53;;;0.70;;
72791;SDS011;60907;53.268;8.764;2023-01-06T15:23:46;4.00;;;0.90;;
72791;SDS011;60907;53.268;8.764;2023-01-06T15:26:24;2.05;;;0.77;;
72791;SDS011;60907;53.268;8.764;2023-01-06T15:29:33;4.70;;;0.63;;
72791;SDS011;60907;53.268;8.764;2023-01-06T15:31:41;3.53;;;0.55;;
72791;SDS011;60907;53.268;8.764;2023-01-06T15:34:10;2.88;;;0.90;;
72791;SDS011;60907;53.268;8.764;2023-01-06T15:36:41;5.30;;;0.73;;
72791;SDS011;60907;53.268;8.764;2023-01-06T15:39:08;4.22;;;1.00;;
72791;SDS011;60907;53.268;8.764;2023-01-06T15:41:35;3.05;;;0.70;;
72791;SDS011;60907;53.268;8.764;2023-01-06T15:44:16;3.80;;;1.10;;
72791;SDS011;60907;53.268;8.764;2023-01-06T15:46:45;1.77;;;1.00;;
72791;SDS011;60907;53.268;8.764;2023-01-06T15:49:15;5.40;;;0.95;;
72791;SDS011;60907;53.268;8.764;2023-01-06T15:51:50;3.47;;;0.70;;
72791;SDS011;60907;53.268;8.764;2023-01-06T15:54:19;5.47;;;0.98;;
72791;SDS011;60907;53.268;8.764;2023-01-06T15:56:44;5.03;;;0.88;;
72791;SDS011;60907;53.268;8.764;2023-01-06T15:59:11;4.32;;;1.20;;
72791;SDS011;60907;53.268;8.764;2023-01-06T16:01:38;5.85;;;0.77;;
72791;SDS011;60907;53.268;8.764;2023-01-06T16:06:37;5.75;;;0.85;;
72791;SDS011;60907;53.268;8.764;2023-01-06T16:14:39;4.93;;;0.77;;
72791;SDS011;60907;53.268;8.764;2023-01-06T16:20:04;5.57;;;0.82;;
72791;SDS011;60907;53.268;8.764;2023-01-06T16:27:50;6.80;;;1.42;;
72791;SDS011;60907;53.268;8.764;2023-01-06T16:30:18;5.75;;;1.15;;
72791;SDS011;60907;53.268;8.764;2023-01-06T16:32:46;2.40;;;0.73;;
72791;SDS011;60907;53.268;8.764;2023-01-06T16:35:13;6.90;;;1.00;;
72791;SDS011;60907;53.268;8.764;2023-01-06T16:37:40;6.38;;;0.85;;
72791;SDS011;60907;53.268;8.764;2023-01-06T16:40:06;3.05;;;0.55;;
72791;SDS011;60907;53.268;8.764;2023-01-06T16:42:33;5.43;;;1.08;;
72791;SDS011;60907;53.268;8.764;2023-01-06T16:47:40;3.10;;;0.80;;
72791;SDS011;60907;53.268;8.764;2023-01-06T16:50:13;5.35;;;0.57;;
72791;SDS011;60907;53.268;8.764;2023-01-06T16:52:40;4.18;;;0.60;;
72791;SDS011;60907;53.268;8.764;2023-01-06T16:55:12;4.97;;;0.43;;
72791;SDS011;60907;53.268;8.764;2023-01-06T16:57:39;8.82;;;1.02;;
72791;SDS011;60907;53.268;8.764;2023-01-06T17:00:08;4.18;;;0.50;;
72791;SDS011;60907;53.268;8.764;2023-01-06T17:02:36;2.45;;;0.68;;
72791;SDS011;60907;53.268;8.764;2023-01-06T17:05:02;3.83;;;1.05;;
72791;SDS011;60907;53.268;8.764;2023-01-06T17:07:28;6.68;;;0.70;;
72791;SDS011;60907;53.268;8.764;2023-01-06T17:09:54;3.53;;;0.50;;
72791;SDS011;60907;53.268;8.764;2023-01-06T17:12:19;2.60;;;0.60;;
72791;SDS011;60907;53.268;8.764;2023-01-06T17:15:03;4.40;;;0.70;;
72791;SDS011;60907;53.268;8.764;2023-01-06T17:17:29;3.67;;;0.52;;
72791;SDS011;60907;53.268;8.764;2023-01-06T17:19:55;3.20;;;1.08;;
72791;SDS011;60907;53.268;8.764;2023-01-06T17:22:22;6.70;;;0.93;;
72791;SDS011;60907;53.268;8.764;2023-01-06T17:24:50;6.53;;;1.10;;
72791;SDS011;60907;53.268;8.764;2023-01-06T17:27:20;3.30;;;0.50;;
72791;SDS011;60907;53.268;8.764;2023-01-06T17:29:46;6.35;;;0.77;;
72791;SDS011;60907;53.268;8.764;2023-01-06T17:32:13;5.82;;;1.20;;
72791;SDS011;60907;53.268;8.764;2023-01-06T17:34:40;5.63;;;0.90;;
72791;SDS011;60907;53.268;8.764;2023-01-06T17:37:10;5.25;;;0.70;;
72791;SDS011;60907;53.268;8.764;2023-01-06T17:39:39;4.85;;;0.63;;
72791;SDS011;60907;53.268;8.764;2023-01-06T17:44:53;5.47;;;0.60;;
72791;SDS011;60907;53.268;8.764;2023-01-06T17:49:50;5.60;;;0.80;;
72791;SDS011;60907;53.268;8.764;2023-01-06T17:52:31;4.00;;;0.63;;
72791;SDS011;60907;53.268;8.764;2023-01-06T17:57:53;7.65;;;0.77;;
72791;SDS011;60907;53.268;8.764;2023-01-06T18:00:24;3.17;;;0.68;;